createdAt,value
2022-10-09T00:01:12.815Z,10.07
2022-10-09T00:03:41.892Z,10.22
2022-10-09T00:06:11.812Z,10.21
2022-10-09T00:08:39.671Z,10.16
2022-10-09T00:11:07.832Z,9.92
2022-10-09T00:13:34.699Z,10.02
2022-10-09T00:16:07.332Z,9.81
2022-10-09T00:18:34.710Z,9.82
2022-10-09T00:21:01.504Z,9.84
2022-10-09T00:23:28.322Z,9.93
2022-10-09T00:26:00.463Z,10.04
2022-10-09T00:28:29.753Z,9.81
2022-10-09T00:30:56.363Z,9.80
2022-10-09T00:33:22.951Z,9.81
2022-10-09T00:35:49.636Z,9.80
2022-10-09T00:38:16.419Z,9.58
2022-10-09T00:40:43.101Z,9.70
2022-10-09T00:43:19.210Z,9.52
2022-10-09T00:45:52.891Z,9.60
2022-10-09T00:48:19.967Z,9.42
2022-10-09T00:50:57.631Z,9.18
2022-10-09T00:53:28.584Z,8.93
2022-10-09T00:55:55.621Z,9.11
2022-10-09T00:58:23.802Z,9.14
2022-10-09T01:00:50.273Z,9.06
2022-10-09T01:03:16.723Z,8.88
2022-10-09T01:05:57.732Z,8.96
2022-10-09T01:08:35.005Z,8.84
2022-10-09T01:11:16.210Z,9.16
2022-10-09T01:14:04.969Z,9.06
2022-10-09T01:16:38.871Z,9.03
2022-10-09T01:19:38.269Z,9.09
2022-10-09T01:22:16.962Z,9.01
2022-10-09T01:25:01.525Z,8.73
2022-10-09T01:27:29.010Z,8.60
2022-10-09T01:30:03.422Z,8.39
2022-10-09T01:32:33.438Z,8.84
2022-10-09T01:35:01.701Z,8.64
2022-10-09T01:37:30.599Z,8.85
2022-10-09T01:39:58.475Z,8.85
2022-10-09T01:42:27.390Z,8.68
2022-10-09T01:44:53.775Z,8.58
2022-10-09T01:47:21.828Z,8.58
2022-10-09T01:50:29.626Z,8.66
2022-10-09T01:53:01.655Z,8.67
2022-10-09T01:55:43.325Z,8.69
2022-10-09T01:58:18.861Z,8.68
2022-10-09T02:01:17.382Z,8.52
2022-10-09T02:03:48.458Z,8.50
2022-10-09T02:06:16.802Z,8.71
2022-10-09T02:08:45.989Z,8.67
2022-10-09T02:11:17.221Z,8.69
2022-10-09T02:13:45.737Z,8.58
2022-10-09T02:16:23.190Z,8.83
2022-10-09T02:19:01.537Z,8.54
2022-10-09T02:21:39.770Z,8.73
2022-10-09T02:24:09.900Z,8.60
2022-10-09T02:26:37.456Z,8.58
2022-10-09T02:29:04.448Z,8.68
2022-10-09T02:31:33.869Z,8.91
2022-10-09T02:34:02.859Z,8.79
2022-10-09T02:36:31.038Z,8.92
2022-10-09T02:38:58.546Z,8.88
2022-10-09T02:41:25.817Z,8.85
2022-10-09T02:43:52.537Z,8.93
2022-10-09T02:46:19.254Z,8.78
2022-10-09T02:48:45.748Z,8.87
2022-10-09T02:51:12.323Z,8.73
2022-10-09T02:53:38.752Z,8.72
2022-10-09T02:56:05.503Z,8.99
2022-10-09T02:58:36.769Z,8.98
2022-10-09T03:01:04.896Z,8.86
2022-10-09T03:03:31.331Z,8.84
2022-10-09T03:06:09.563Z,9.03
2022-10-09T03:08:41.094Z,9.01
2022-10-09T03:11:08.360Z,8.86
2022-10-09T03:13:35.130Z,8.84
2022-10-09T03:16:06.382Z,8.95
2022-10-09T03:18:32.869Z,8.98
2022-10-09T03:20:59.365Z,8.87
2022-10-09T03:23:26.704Z,8.96
2022-10-09T03:26:01.022Z,8.91
2022-10-09T03:28:28.874Z,9.03
2022-10-09T03:30:55.598Z,8.99
2022-10-09T03:33:22.534Z,8.94
2022-10-09T03:35:49.980Z,8.78
2022-10-09T03:38:16.892Z,8.82
2022-10-09T03:40:43.566Z,8.92
2022-10-09T03:43:10.083Z,8.64
2022-10-09T03:45:40.648Z,8.74
2022-10-09T03:48:07.958Z,8.65
2022-10-09T03:50:34.353Z,8.62
2022-10-09T03:53:00.839Z,8.78
2022-10-09T03:55:27.247Z,8.69
2022-10-09T03:57:53.625Z,8.76
2022-10-09T04:00:20.173Z,8.54
2022-10-09T04:02:46.913Z,8.73
2022-10-09T04:05:13.754Z,8.54
2022-10-09T04:07:40.118Z,8.48
2022-10-09T04:10:06.703Z,8.52
2022-10-09T04:12:33.123Z,8.35
2022-10-09T04:14:59.533Z,8.30
2022-10-09T04:17:25.971Z,8.37
2022-10-09T04:19:52.369Z,8.38
2022-10-09T04:22:18.846Z,8.33
2022-10-09T04:24:45.273Z,8.35
2022-10-09T04:27:11.682Z,8.18
2022-10-09T04:29:38.251Z,8.19
2022-10-09T04:32:04.665Z,8.18
2022-10-09T04:34:31.041Z,8.14
2022-10-09T04:37:01.639Z,8.00
2022-10-09T04:39:28.069Z,8.03
2022-10-09T04:41:54.496Z,8.00
2022-10-09T04:44:20.906Z,7.98
2022-10-09T04:46:50.418Z,8.14
2022-10-09T04:49:17.194Z,7.89
2022-10-09T04:51:44.544Z,7.95
2022-10-09T04:54:12.079Z,8.16
2022-10-09T04:56:38.771Z,8.12
2022-10-09T04:59:05.221Z,8.29
2022-10-09T05:01:35.740Z,8.21
2022-10-09T05:04:04.593Z,7.95
2022-10-09T05:06:30.987Z,8.13
2022-10-09T05:08:57.415Z,8.22
2022-10-09T05:11:25.475Z,8.40
2022-10-09T05:13:56.304Z,8.24
2022-10-09T05:16:28.327Z,8.38
2022-10-09T05:18:57.048Z,8.37
2022-10-09T05:21:24.431Z,8.18
2022-10-09T05:23:52.535Z,8.52
2022-10-09T05:26:20.697Z,8.42
2022-10-09T05:28:47.430Z,8.50
2022-10-09T05:31:29.293Z,8.69
2022-10-09T05:33:59.051Z,8.65
2022-10-09T05:36:25.450Z,8.46
2022-10-09T05:38:52.885Z,8.53
2022-10-09T05:41:20.369Z,8.66
2022-10-09T05:43:48.961Z,8.71
2022-10-09T05:46:20.894Z,8.66
2022-10-09T05:48:52.498Z,8.79
2022-10-09T05:51:22.200Z,8.73
2022-10-09T05:53:49.669Z,8.73
2022-10-09T05:56:21.846Z,8.85
2022-10-09T05:58:58.352Z,8.99
2022-10-09T06:01:26.485Z,8.77
2022-10-09T06:03:55.218Z,8.84
2022-10-09T06:06:23.616Z,8.83
2022-10-09T06:08:50.861Z,8.54
2022-10-09T06:11:21.433Z,8.95
2022-10-09T06:13:48.943Z,9.02
2022-10-09T06:16:17.443Z,8.74
2022-10-09T06:18:49.254Z,8.95
2022-10-09T06:21:16.997Z,8.88
2022-10-09T06:23:43.609Z,8.99
2022-10-09T06:26:12.648Z,9.07
2022-10-09T06:28:39.640Z,8.97
2022-10-09T06:31:09.034Z,9.05
2022-10-09T06:33:37.835Z,9.05
2022-10-09T06:36:20.618Z,9.21
2022-10-09T06:38:49.234Z,8.90
2022-10-09T06:41:22.223Z,9.10
2022-10-09T06:43:55.654Z,9.13
2022-10-09T06:46:24.819Z,9.21
2022-10-09T06:48:55.551Z,9.10
2022-10-09T06:51:30.008Z,9.18
2022-10-09T06:54:01.204Z,9.14
2022-10-09T06:56:31.836Z,9.29
2022-10-09T06:59:04.327Z,9.30
2022-10-09T07:01:32.227Z,9.05
2022-10-09T07:04:09.075Z,9.17
2022-10-09T07:06:39.795Z,9.15
2022-10-09T07:09:08.955Z,9.36
2022-10-09T07:11:38.425Z,9.46
2022-10-09T07:14:08.723Z,9.50
2022-10-09T07:16:37.881Z,9.44
2022-10-09T07:19:07.539Z,9.45
2022-10-09T07:21:35.688Z,9.16
2022-10-09T07:24:03.255Z,9.60
2022-10-09T07:26:31.964Z,9.44
2022-10-09T07:29:11.086Z,9.56
2022-10-09T07:31:46.976Z,9.40
2022-10-09T07:34:13.434Z,9.46
2022-10-09T07:36:39.878Z,9.41
2022-10-09T07:39:06.312Z,9.46
2022-10-09T07:41:33.185Z,9.61
2022-10-09T07:44:06.658Z,9.69
2022-10-09T07:46:35.390Z,9.85
2022-10-09T07:49:02.455Z,9.53
2022-10-09T07:51:30.414Z,9.90
2022-10-09T07:53:57.555Z,9.95
2022-10-09T07:56:29.185Z,9.81
2022-10-09T07:58:58.271Z,10.05
2022-10-09T08:01:27.893Z,10.05
2022-10-09T08:03:54.958Z,9.75
2022-10-09T08:06:21.943Z,10.12
2022-10-09T08:08:56.825Z,10.06
2022-10-09T08:11:24.870Z,10.25
2022-10-09T08:13:52.112Z,10.02
2022-10-09T08:16:20.625Z,10.34
2022-10-09T08:18:47.328Z,10.13
2022-10-09T08:21:18.806Z,10.47
2022-10-09T08:23:45.970Z,10.43
2022-10-09T08:26:19.512Z,10.46
2022-10-09T08:28:54.622Z,10.24
2022-10-09T08:31:22.590Z,10.27
2022-10-09T08:33:53.108Z,10.43
2022-10-09T08:36:19.894Z,10.27
2022-10-09T08:38:47.925Z,10.55
2022-10-09T08:41:25.882Z,10.51
2022-10-09T08:44:01.233Z,10.31
2022-10-09T08:46:39.657Z,10.65
2022-10-09T08:49:08.900Z,10.51
2022-10-09T08:51:38.469Z,10.65
2022-10-09T08:54:20.059Z,10.69
2022-10-09T08:56:47.679Z,10.63
2022-10-09T08:59:14.130Z,10.85
2022-10-09T09:01:56.970Z,10.57
2022-10-09T09:04:44.953Z,10.57
2022-10-09T09:07:49.877Z,10.85
2022-10-09T09:10:29.742Z,10.62
2022-10-09T09:13:23.973Z,11.01
2022-10-09T09:16:08.489Z,10.96
2022-10-09T09:18:52.740Z,11.06
2022-10-09T09:21:42.177Z,11.29
2022-10-09T09:24:17.165Z,11.27
2022-10-09T09:26:47.252Z,11.39
2022-10-09T09:29:17.601Z,11.14
2022-10-09T09:31:46.362Z,11.21
2022-10-09T09:34:28.935Z,11.31
2022-10-09T09:36:58.343Z,11.64
2022-10-09T09:42:17.510Z,11.57
2022-10-09T09:44:57.795Z,11.39
2022-10-09T09:47:33.080Z,11.59
2022-10-09T09:50:01.716Z,11.53
2022-10-09T09:52:36.991Z,11.44
2022-10-09T09:55:05.018Z,11.48
2022-10-09T09:57:37.474Z,11.69
2022-10-09T10:00:22.867Z,11.79
2022-10-09T10:02:50.549Z,11.60
2022-10-09T10:05:24.401Z,11.70
2022-10-09T10:07:51.679Z,11.46
2022-10-09T10:10:26.681Z,11.70
2022-10-09T10:12:55.178Z,11.66
2022-10-09T10:15:36.128Z,11.50
2022-10-09T10:18:12.717Z,11.68
2022-10-09T10:20:49.235Z,11.62
2022-10-09T10:23:43.634Z,11.72
2022-10-09T10:26:30.210Z,11.87
2022-10-09T10:29:12.903Z,11.85
2022-10-09T10:31:57.451Z,11.82
2022-10-09T10:34:32.738Z,11.92
2022-10-09T10:37:14.386Z,11.88
2022-10-09T10:39:50.850Z,11.95
2022-10-09T10:42:37.132Z,11.85
2022-10-09T10:45:19.386Z,11.65
2022-10-09T10:47:55.101Z,12.06
2022-10-09T10:50:30.869Z,12.16
2022-10-09T10:53:36.084Z,12.36
2022-10-09T10:56:25.743Z,12.38
2022-10-09T10:59:19.030Z,12.38
2022-10-09T11:02:04.766Z,12.41
2022-10-09T11:04:36.684Z,12.49
2022-10-09T11:07:31.533Z,12.47
2022-10-09T11:10:31.444Z,12.52
2022-10-09T11:13:15.337Z,12.40
2022-10-09T11:16:19.974Z,12.54
2022-10-09T11:19:27.985Z,12.74
2022-10-09T11:22:26.354Z,12.61
2022-10-09T11:25:12.783Z,12.87
2022-10-09T11:28:01.921Z,12.74
2022-10-09T11:30:32.648Z,12.87
2022-10-09T11:33:23.921Z,12.98
2022-10-09T11:36:01.302Z,12.93
2022-10-09T11:38:41.870Z,13.04
2022-10-09T11:41:08.562Z,13.09
2022-10-09T11:43:49.752Z,13.08
2022-10-09T11:46:40.808Z,13.01
2022-10-09T11:49:16.367Z,13.26
2022-10-09T11:51:50.348Z,13.01
2022-10-09T11:54:32.890Z,13.13
2022-10-09T11:57:05.935Z,13.07
2022-10-09T11:59:38.122Z,13.34
2022-10-09T12:02:36.021Z,13.34
2022-10-09T12:05:31.952Z,13.30
2022-10-09T12:08:19.361Z,13.54
2022-10-09T12:10:54.490Z,13.75
2022-10-09T12:13:55.441Z,13.82
2022-10-09T12:16:48.127Z,13.75
2022-10-09T12:19:26.576Z,13.72
2022-10-09T12:22:14.733Z,13.82
2022-10-09T12:24:54.805Z,13.67
2022-10-09T12:27:26.998Z,13.58
2022-10-09T12:30:17.339Z,13.68
2022-10-09T12:32:49.502Z,13.70
2022-10-09T12:35:26.088Z,13.76
2022-10-09T12:37:52.407Z,13.63
2022-10-09T12:40:25.719Z,13.48
2022-10-09T12:42:55.336Z,13.60
2022-10-09T12:45:30.342Z,13.65
2022-10-09T12:48:09.932Z,13.55
2022-10-09T12:50:37.620Z,13.74
2022-10-09T12:53:19.517Z,13.59
2022-10-09T16:58:28.556Z,11.80
2022-10-09T17:01:00.590Z,11.87
2022-10-09T17:03:27.514Z,11.77
2022-10-09T17:05:53.950Z,11.79
2022-10-09T17:08:20.460Z,11.92
2022-10-09T17:10:46.907Z,11.66
2022-10-09T17:13:13.369Z,11.75
2022-10-09T17:15:40.648Z,11.84
2022-10-09T17:18:07.779Z,11.84
2022-10-09T17:20:38.667Z,11.77
2022-10-09T17:23:05.864Z,11.84
2022-10-09T17:25:33.235Z,11.82
2022-10-09T17:28:00.689Z,11.84
2022-10-09T17:30:37.381Z,11.75
2022-10-09T17:33:05.943Z,11.80
2022-10-09T17:35:33.418Z,11.56
2022-10-09T17:38:01.851Z,11.91
2022-10-09T17:40:28.467Z,11.71
2022-10-09T17:42:54.944Z,11.72
2022-10-09T17:45:21.343Z,11.96
2022-10-09T17:47:49.235Z,11.79
2022-10-09T17:50:15.742Z,11.73
2022-10-09T17:52:42.200Z,11.60
2022-10-09T17:55:08.771Z,11.84
2022-10-09T17:57:35.470Z,11.92
2022-10-09T18:00:01.980Z,11.80
2022-10-09T18:02:28.455Z,11.87
2022-10-09T18:04:57.338Z,11.77
2022-10-09T18:07:29.937Z,11.80
2022-10-09T18:09:56.352Z,11.83
2022-10-09T18:12:23.060Z,11.80
2022-10-09T18:14:50.495Z,11.71
2022-10-09T18:17:17.863Z,11.62
2022-10-09T18:19:44.274Z,11.63
2022-10-09T18:22:10.693Z,11.77
2022-10-09T18:24:37.120Z,11.59
2022-10-09T18:27:03.862Z,11.63
2022-10-09T18:29:32.231Z,11.80
2022-10-09T18:31:58.713Z,11.75
2022-10-09T18:34:26.206Z,11.75
2022-10-09T18:36:58.237Z,11.57
2022-10-09T18:39:28.703Z,11.67
2022-10-09T18:42:02.109Z,11.80
2022-10-09T18:44:30.219Z,11.60
2022-10-09T18:46:58.945Z,11.78
2022-10-09T18:49:31.024Z,11.82
2022-10-09T18:52:03.648Z,11.66
2022-10-09T18:54:30.973Z,11.57
2022-10-09T18:56:57.731Z,11.56
2022-10-09T18:59:27.293Z,11.62
2022-10-09T19:01:55.784Z,11.67
2022-10-09T19:04:22.273Z,11.58
2022-10-09T19:06:48.695Z,11.73
2022-10-09T19:09:21.516Z,11.65
2022-10-09T19:11:48.113Z,11.55
2022-10-09T19:14:22.816Z,11.50
2022-10-09T19:16:49.344Z,11.49
2022-10-09T19:19:17.821Z,11.38
2022-10-09T19:21:44.424Z,11.60
2022-10-09T19:24:13.166Z,11.69
2022-10-09T19:26:41.378Z,11.41
2022-10-09T19:29:08.024Z,11.48
2022-10-09T19:31:35.735Z,11.61
2022-10-09T19:34:04.429Z,11.54
2022-10-09T19:36:50.621Z,11.41
2022-10-09T19:39:18.859Z,11.49
2022-10-09T19:41:45.319Z,11.27
2022-10-09T19:44:15.867Z,11.29
2022-10-09T19:46:42.261Z,11.48
2022-10-09T19:49:09.437Z,11.44
2022-10-09T19:51:36.878Z,11.38
2022-10-09T19:54:04.957Z,11.31
2022-10-09T19:56:34.015Z,11.15
2022-10-09T19:59:02.549Z,11.28
2022-10-09T20:01:30.515Z,10.83
2022-10-09T20:03:59.909Z,11.04
2022-10-09T20:06:28.208Z,11.16
2022-10-09T20:08:55.331Z,11.31
2022-10-09T20:11:22.706Z,11.12
2022-10-09T20:13:55.744Z,11.14
2022-10-09T20:16:23.685Z,11.17
2022-10-09T20:18:50.108Z,10.75
2022-10-09T20:21:18.129Z,10.75
2022-10-09T20:23:44.772Z,10.78
2022-10-09T20:26:16.422Z,10.80
2022-10-09T20:29:01.239Z,10.58
2022-10-09T20:31:27.945Z,10.52
2022-10-09T20:33:54.863Z,10.56
2022-10-09T20:36:25.327Z,10.49
2022-10-09T20:38:53.981Z,10.33
2022-10-09T20:41:20.383Z,10.28
2022-10-09T20:43:50.446Z,10.31
2022-10-09T20:46:16.934Z,10.51
2022-10-09T20:48:44.054Z,10.27
2022-10-09T20:51:10.747Z,10.23
2022-10-09T20:53:37.239Z,10.09
2022-10-09T20:56:08.757Z,10.08
2022-10-09T20:58:36.240Z,9.99
2022-10-09T21:01:07.345Z,10.36
2022-10-09T21:03:35.085Z,10.17
2022-10-09T21:06:06.599Z,10.42
2022-10-09T21:08:33.672Z,10.39
2022-10-09T21:11:00.304Z,10.33
2022-10-09T21:13:26.977Z,10.39
2022-10-09T21:15:53.600Z,10.14
2022-10-09T21:18:26.291Z,10.10
2022-10-09T21:20:52.710Z,10.26
2022-10-09T21:23:19.262Z,10.08
2022-10-09T21:25:50.501Z,10.23
2022-10-09T21:28:18.357Z,10.26
2022-10-09T21:30:46.215Z,10.02
2022-10-09T21:33:12.676Z,9.83
2022-10-09T21:35:45.780Z,9.80
2022-10-09T21:38:14.840Z,9.96
2022-10-09T21:40:41.820Z,9.85
2022-10-09T21:43:08.797Z,9.85
2022-10-09T21:45:35.821Z,10.18
2022-10-09T21:48:02.279Z,10.08
2022-10-09T21:50:29.788Z,10.20
2022-10-09T21:52:56.183Z,9.96
2022-10-09T21:55:22.580Z,10.20
2022-10-09T21:57:49.251Z,9.95
2022-10-09T22:00:15.926Z,9.94
2022-10-09T22:02:42.653Z,9.89
2022-10-09T22:05:09.732Z,9.81
2022-10-09T22:07:36.519Z,9.80
2022-10-09T22:10:03.856Z,10.07
2022-10-09T22:12:30.252Z,9.76
2022-10-09T22:14:56.793Z,9.76
2022-10-09T22:17:23.177Z,9.77
2022-10-09T22:19:49.655Z,9.75
2022-10-09T22:22:16.080Z,9.63
2022-10-09T22:24:42.531Z,9.73
2022-10-09T22:27:08.947Z,9.69
2022-10-09T22:29:36.286Z,9.77
2022-10-09T22:32:02.671Z,9.85
2022-10-09T22:34:29.083Z,9.62
2022-10-09T22:36:55.470Z,9.76
2022-10-09T22:39:21.934Z,9.75
2022-10-09T22:41:48.382Z,9.74
2022-10-09T22:44:20.990Z,9.74
2022-10-09T22:46:50.318Z,9.73
2022-10-09T22:49:16.999Z,9.69
2022-10-09T22:51:44.513Z,9.74
2022-10-09T22:54:12.786Z,9.62
2022-10-09T22:56:42.595Z,9.31
2022-10-09T22:59:15.262Z,9.32
2022-10-09T23:01:48.457Z,9.56
2022-10-09T23:04:16.828Z,9.40
2022-10-09T23:06:44.586Z,9.52
2022-10-09T23:09:13.639Z,9.46
2022-10-09T23:11:40.355Z,9.52
2022-10-09T23:14:07.413Z,9.59
2022-10-09T23:16:34.658Z,9.53
2022-10-09T23:19:06.489Z,9.46
2022-10-09T23:21:35.977Z,9.43
2022-10-09T23:24:02.448Z,9.24
2022-10-09T23:26:31.055Z,9.14
2022-10-09T23:29:06.758Z,9.18
2022-10-09T23:31:35.957Z,9.24
2022-10-09T23:34:04.375Z,9.16
2022-10-09T23:36:31.214Z,9.12
2022-10-09T23:38:59.175Z,9.03
2022-10-09T23:41:27.835Z,8.65
2022-10-09T23:43:54.955Z,8.69
2022-10-09T23:46:24.088Z,9.03
2022-10-09T23:48:51.239Z,8.64
2022-10-09T23:51:19.544Z,8.82
2022-10-09T23:53:46.728Z,8.81
2022-10-09T23:56:25.143Z,8.67
2022-10-09T23:58:52.481Z,8.85
